ePrivacy and GPDR Cookie Consent by Cookie Consent
EmailTwitter


Surface observations / United Kingdom / EGLL (03772)

Regions: Quebec | Canada | USA | Europe | France | UK | Elsewhere
Station
Display
Info & Location for EGLL (03772) | Help decoding METAR

Weather Conditions observed on 2021/12/08 at 23:50 UTC at LONDON/HEATHROW, UK (EGLL)

Sky conditions: few clouds.

Temperature: 6.0 Celsius.

Dewpoint: 1.0 Celsius.

Relative Humidity: 70%

Windchill Factor: 2.

Winds: West at 22 km/h or 12 knots.

Mean Sea level Pressure: 99.90 kilopascals.

Horizontal visibility: 6.21 statute miles or 9.94 kilometers.

Coded METAR:

EGLL 082350Z AUTO 26012KT 9999 FEW034 06/01 Q0999 NOSIG=